Nikko Maru — JD3180 — position and weather

sailwx.info

Track history (hours):
 
Tides and Currents Weather Stations Pressure Air Temp Water Temp Dewpoint Dewpoint Depression Visibility Wind Speed Wind Dir Waves Ship Positions

Nikko Maru

Last reported at 2017-Nov-24 03:30 UTC. Time now 2017-Nov-24 03:35 UTC.
Position N 34°39' E 135°25'.

Length 43 m; draft 4 m.

Type: Tug. MMSI: 431002379.

Date/timePositionNaut miles runAvg speedWind from/ knotsBaromVisibWave heightAir tempDewpointWater temp
2017-Nov-24 03:30N 34°39' E 135°25'2 4.3
2017-Nov-24 03:00N 34°38' E 135°23'1 1.1
2017-Nov-24 02:30N 34°37' E 135°23'1 2.5
2017-Nov-24 01:58N 34°36' E 135°24'0 0.2
2017-Nov-24 01:29N 34°36' E 135°24'2 5.0
2017-Nov-24 00:59N 34°34' E 135°23'2 5.0
2017-Nov-24 00:29N 34°33' E 135°26'0 0.1
2017-Nov-24 00:00N 34°33' E 135°26'0 0.1
2017-Nov-23 23:30N 34°33' E 135°26'3 5.8
2017-Nov-23 23:00N 34°31' E 135°24'1 1.0
2017-Nov-23 22:26N 34°31' E 135°24'0 0.0
2017-Nov-23 21:58N 34°31' E 135°24'0 0.0
2017-Nov-23 21:29N 34°31' E 135°24'1 2.0
2017-Nov-23 20:55N 34°32' E 135°24'3 6.1
2017-Nov-23 20:30N 34°33' E 135°27'0 0.0
2017-Nov-23 20:00N 34°33' E 135°27'0 0.0
2017-Nov-23 19:29N 34°33' E 135°27'0 0.0
2017-Nov-23 19:00N 34°33' E 135°27'0 0.0
2017-Nov-23 18:30N 34°33' E 135°27'0 0.0
2017-Nov-23 18:00N 34°33' E 135°27'0 0.0
2017-Nov-23 17:30N 34°33' E 135°27'0 0.0
2017-Nov-23 17:00N 34°33' E 135°27'0 0.0
2017-Nov-23 16:30N 34°33' E 135°27'0 0.0
2017-Nov-23 16:00N 34°33' E 135°27'0 0.0
2017-Nov-23 15:30N 34°33' E 135°27'0 0.0
2017-Nov-23 15:00N 34°33' E 135°27'0 0.0
2017-Nov-23 14:30N 34°33' E 135°27'0 0.0
2017-Nov-23 14:00N 34°33' E 135°27'0 0.0
2017-Nov-23 13:28N 34°33' E 135°27'0 0.0
2017-Nov-23 12:55N 34°33' E 135°27'0 0.0
2017-Nov-23 12:30N 34°33' E 135°27'0 0.0
2017-Nov-23 11:57N 34°33' E 135°27'0 0.0
2017-Nov-23 11:24N 34°33' E 135°27'0 0.0
2017-Nov-23 10:58N 34°33' E 135°27'0 0.0
2017-Nov-23 10:30N 34°33' E 135°27'0 0.0
2017-Nov-23 10:00N 34°33' E 135°27'0 0.0
2017-Nov-23 09:30N 34°33' E 135°27'0 0.0
2017-Nov-23 09:00N 34°33' E 135°27'0 0.0
2017-Nov-23 07:24N 34°33' E 135°27'0 0.0
2017-Nov-23 05:17N 34°33' E 135°27'0 0.0
2017-Nov-23 04:06N 34°33' E 135°27'0 0.0
2017-Nov-23 01:15N 34°33' E 135°27'0 0.0
2017-Nov-23 00:54N 34°33' E 135°27'0 0.0
2017-Nov-23 00:26N 34°33' E 135°27'0 0.0
2017-Nov-23 00:00N 34°33' E 135°27'1 0.8
2017-Nov-22 23:15N 34°34' E 135°26'0 0.3
2017-Nov-22 23:00N 34°33' E 135°26'1 1.8
2017-Nov-22 22:29N 34°33' E 135°25'4 7.0
2017-Nov-22 21:58N 34°34' E 135°20'1 1.3
2017-Nov-22 21:30N 34°34' E 135°21'5 9.0
2017-Nov-22 21:00N 34°33' E 135°27'0 0.0
2017-Nov-22 20:30N 34°33' E 135°27'0 0.0
2017-Nov-22 20:00N 34°33' E 135°27'0 0.0
2017-Nov-22 19:30N 34°33' E 135°27'  
2017-Nov-20 00:29N 34°33' E 135°27'0 0.0
2017-Nov-19 23:56N 34°33' E 135°27'0 0.0
2017-Nov-19 23:23N 34°33' E 135°27'0 0.0
2017-Nov-19 22:57N 34°33' E 135°27'0 0.0
2017-Nov-19 22:31N 34°33' E 135°27'0 0.0
2017-Nov-19 22:01N 34°33' E 135°27'0 0.0
2017-Nov-19 21:25N 34°33' E 135°27'0 0.0
2017-Nov-19 21:00N 34°33' E 135°27'0 0.0
2017-Nov-19 20:30N 34°33' E 135°27'0 0.0
2017-Nov-19 20:00N 34°33' E 135°27'0 0.0
2017-Nov-19 19:30N 34°33' E 135°27'0 0.0
2017-Nov-19 19:01N 34°33' E 135°27'0 0.0
2017-Nov-19 18:31N 34°33' E 135°27'0 0.0
2017-Nov-19 18:01N 34°33' E 135°27'0 0.0
2017-Nov-19 17:31N 34°33' E 135°27'0 0.0
2017-Nov-19 17:01N 34°33' E 135°27'0 0.0
2017-Nov-19 16:30N 34°33' E 135°27'0 0.0
2017-Nov-19 16:01N 34°33' E 135°27'0 0.0
2017-Nov-19 15:31N 34°33' E 135°27'0 0.0
2017-Nov-19 15:00N 34°33' E 135°27'0 0.0
2017-Nov-19 14:31N 34°33' E 135°27'0 0.0
2017-Nov-19 14:01N 34°33' E 135°27'0 0.0
2017-Nov-19 13:31N 34°33' E 135°27'0 0.0
2017-Nov-19 13:01N 34°33' E 135°27'0 0.0
2017-Nov-19 12:30N 34°33' E 135°27'0 0.0
2017-Nov-19 12:01N 34°33' E 135°27'0 0.0
2017-Nov-19 11:29N 34°33' E 135°27'0 0.0
2017-Nov-19 11:01N 34°33' E 135°27'0 0.0
2017-Nov-19 10:27N 34°33' E 135°27'0 0.0
2017-Nov-19 07:02N 34°33' E 135°27'0 0.0
2017-Nov-19 06:46N 34°33' E 135°27'0 0.0
2017-Nov-19 06:22N 34°33' E 135°27'0 0.0
2017-Nov-19 05:59N 34°33' E 135°27'0 0.0
2017-Nov-19 02:35N 34°33' E 135°27'1 6.4
2017-Nov-19 02:26N 34°33' E 135°26'3 7.5
2017-Nov-19 02:01N 34°31' E 135°23'0 0.2
2017-Nov-19 01:26N 34°31' E 135°24'1 3.4
2017-Nov-19 01:01N 34°32' E 135°23'0 0.6
2017-Nov-19 00:30N 34°32' E 135°23'1 2.7
2017-Nov-18 23:58N 34°31' E 135°24'0 0.0
2017-Nov-18 23:13N 34°31' E 135°24'0 1.3
2017-Nov-18 23:00N 34°32' E 135°24'0 0.7
2017-Nov-18 22:30N 34°32' E 135°24'1 2.6
2017-Nov-18 22:01N 34°33' E 135°23'0 0.1
2017-Nov-18 21:31N 34°33' E 135°23'3 5.2
2017-Nov-18 21:01N 34°33' E 135°27'0 0.0
2017-Nov-18 20:31N 34°33' E 135°27'0 0.0
2017-Nov-18 20:00N 34°33' E 135°27'0 0.0
2017-Nov-18 19:29N 34°33' E 135°27'0 0.0
2017-Nov-18 19:01N 34°33' E 135°27'0 0.0
2017-Nov-18 18:30N 34°33' E 135°27'0 0.0
2017-Nov-18 18:01N 34°33' E 135°27'0 0.0
2017-Nov-18 17:30N 34°33' E 135°27'0 0.0
2017-Nov-18 17:00N 34°33' E 135°27'0 0.0
2017-Nov-18 16:31N 34°33' E 135°27'0 0.0
2017-Nov-18 16:01N 34°33' E 135°27'0 0.0
2017-Nov-18 15:31N 34°33' E 135°27'0 0.0
2017-Nov-18 15:01N 34°33' E 135°27'0 0.0
2017-Nov-18 14:31N 34°33' E 135°27'0 0.0
2017-Nov-18 14:00N 34°33' E 135°27'0 0.0
2017-Nov-18 13:29N 34°33' E 135°27'0 0.0
2017-Nov-18 13:01N 34°33' E 135°27'0 0.0
2017-Nov-18 12:30N 34°33' E 135°27'0 0.0
2017-Nov-18 12:00N 34°33' E 135°27'0 0.0
2017-Nov-18 11:31N 34°33' E 135°27'0 0.0
2017-Nov-18 11:00N 34°33' E 135°27'0 0.0
2017-Nov-18 10:31N 34°33' E 135°27'0 0.0
2017-Nov-18 10:00N 34°33' E 135°27'0 0.0
2017-Nov-18 09:29N 34°33' E 135°27'0 0.0
2017-Nov-18 08:58N 34°33' E 135°27'0 0.0
2017-Nov-18 08:24N 34°33' E 135°27'0 0.0
2017-Nov-18 08:00N 34°33' E 135°27'0 0.0
2017-Nov-18 07:31N 34°33' E 135°27'0 0.0
2017-Nov-18 07:01N 34°33' E 135°27'2 4.9
2017-Nov-18 06:31N 34°34' E 135°24'5 9.8
2017-Nov-18 06:00N 34°39' E 135°24'1 2.0
2017-Nov-18 05:31N 34°38' E 135°23'1 2.3
2017-Nov-18 05:00N 34°37' E 135°23'4 8.0
2017-Nov-18 04:29N 34°33' E 135°25'1 2.3
2017-Nov-18 04:00N 34°33' E 135°27'0 0.0
2017-Nov-18 03:30N 34°33' E 135°27'0 0.0
2017-Nov-18 03:00N 34°33' E 135°27'0 0.0
2017-Nov-18 02:30N 34°33' E 135°27'0 0.0
2017-Nov-18 02:00N 34°33' E 135°27'0 0.0
2017-Nov-18 01:30N 34°33' E 135°27'0 0.0
2017-Nov-18 01:00N 34°33' E 135°27'0 0.0
2017-Nov-18 00:30N 34°33' E 135°27'0 0.0
2017-Nov-18 00:00N 34°33' E 135°27'0 0.0
2017-Nov-17 23:30N 34°33' E 135°27'0 0.0
2017-Nov-17 23:00N 34°33' E 135°27'0 0.0
2017-Nov-17 22:30N 34°33' E 135°27'0 0.0
2017-Nov-17 22:00N 34°33' E 135°27'0 0.0
2017-Nov-17 21:30N 34°33' E 135°27'0 0.0
2017-Nov-17 21:00N 34°33' E 135°27'0 0.0
2017-Nov-17 20:30N 34°33' E 135°27'0 0.0
2017-Nov-17 20:00N 34°33' E 135°27'0 0.0
2017-Nov-17 19:30N 34°33' E 135°27'0 0.0
2017-Nov-17 19:00N 34°33' E 135°27'0 0.0
2017-Nov-17 18:30N 34°33' E 135°27'0 0.0
2017-Nov-17 18:00N 34°33' E 135°27'0 0.0
2017-Nov-17 17:30N 34°33' E 135°27'0 0.0
2017-Nov-17 17:00N 34°33' E 135°27'0 0.0
2017-Nov-17 16:30N 34°33' E 135°27'0 0.0
2017-Nov-17 16:00N 34°33' E 135°27'0 0.0
2017-Nov-17 15:30N 34°33' E 135°27'0 0.0
2017-Nov-17 15:00N 34°33' E 135°27'0 0.0
2017-Nov-17 14:30N 34°33' E 135°27'0 0.0
2017-Nov-17 14:00N 34°33' E 135°27'0 0.0
2017-Nov-17 13:30N 34°33' E 135°27'0 0.0
2017-Nov-17 13:00N 34°33' E 135°27'0 0.0
2017-Nov-17 12:30N 34°33' E 135°27'0 0.0
2017-Nov-17 12:00N 34°33' E 135°27'0 0.0
2017-Nov-17 11:30N 34°33' E 135°27'0 0.0
2017-Nov-17 11:00N 34°33' E 135°27'0 0.0
2017-Nov-17 10:30N 34°33' E 135°27'0 0.0
2017-Nov-17 10:00N 34°33' E 135°27'0 0.0
2017-Nov-17 09:30N 34°33' E 135°27'0 0.0
2017-Nov-17 09:00N 34°33' E 135°27'0 0.0
2017-Nov-17 08:19N 34°33' E 135°27'0 0.0
2017-Nov-17 08:00N 34°33' E 135°27'0 0.0
2017-Nov-17 07:26N 34°33' E 135°27'0 0.0
2017-Nov-17 06:58N 34°33' E 135°27'0 0.0
2017-Nov-17 06:12N 34°33' E 135°27'0 0.0
2017-Nov-17 05:59N 34°33' E 135°27'0 0.0
2017-Nov-17 04:59N 34°33' E 135°27'0 0.0
2017-Nov-17 04:28N 34°33' E 135°27'0 0.0
2017-Nov-17 03:59N 34°33' E 135°27'2 1.3
2017-Nov-17 02:31N 34°34' E 135°24'0 0.0
2017-Nov-17 02:29N 34°34' E 135°24'1 1.2
2017-Nov-17 02:00N 34°33' E 135°24'3 5.6
2017-Nov-17 01:30N 34°33' E 135°20'1 2.4
2017-Nov-17 00:58N 34°33' E 135°22'4 8.5
2017-Nov-17 00:30N 34°33' E 135°27'0 0.0
2017-Nov-17 00:00N 34°33' E 135°27'0 0.0
2017-Nov-16 23:30N 34°33' E 135°27'0 0.0
2017-Nov-16 23:00N 34°33' E 135°27'0 0.0
2017-Nov-16 22:30N 34°33' E 135°27'0 0.0
2017-Nov-16 22:00N 34°33' E 135°27'0 0.0
2017-Nov-16 21:30N 34°33' E 135°27'0 0.0
2017-Nov-16 21:00N 34°33' E 135°27'0 0.0
2017-Nov-16 20:30N 34°33' E 135°27'0 0.0
2017-Nov-16 20:00N 34°33' E 135°27'0 0.0
2017-Nov-16 19:30N 34°33' E 135°27'0 0.0
2017-Nov-16 19:00N 34°33' E 135°27'0 0.0
2017-Nov-16 18:30N 34°33' E 135°27'0 0.0
2017-Nov-16 18:00N 34°33' E 135°27'0 0.0
2017-Nov-16 17:30N 34°33' E 135°27'0 0.0
2017-Nov-16 17:00N 34°33' E 135°27'0 0.0
2017-Nov-16 16:30N 34°33' E 135°27'0 0.0
2017-Nov-16 15:59N 34°33' E 135°27'0 0.0
2017-Nov-16 15:30N 34°33' E 135°27'0 0.0
2017-Nov-16 15:00N 34°33' E 135°27'0 0.0
2017-Nov-16 14:30N 34°33' E 135°27'0 0.0
2017-Nov-16 14:00N 34°33' E 135°27'0 0.0
2017-Nov-16 13:30N 34°33' E 135°27'0 0.0
2017-Nov-16 12:59N 34°33' E 135°27'0 0.0
2017-Nov-16 12:29N 34°33' E 135°27'0 0.0
2017-Nov-16 12:00N 34°33' E 135°27'0 0.0
2017-Nov-16 11:30N 34°33' E 135°27'0 0.0
2017-Nov-16 10:59N 34°33' E 135°27'0 0.0
2017-Nov-16 10:30N 34°33' E 135°27'0 0.0
2017-Nov-16 10:00N 34°33' E 135°27'0 0.0
2017-Nov-16 09:30N 34°33' E 135°27'0 0.0
2017-Nov-16 09:00N 34°33' E 135°27'0 0.0
2017-Nov-16 08:26N 34°33' E 135°27'0 0.0
2017-Nov-16 07:58N 34°33' E 135°27'0 0.0
2017-Nov-16 05:18N 34°33' E 135°27'0 0.0
2017-Nov-16 04:47N 34°33' E 135°27'0 0.0
2017-Nov-16 04:10N 34°33' E 135°27'0 0.0
2017-Nov-16 03:47N 34°33' E 135°27'0 0.0
2017-Nov-16 01:55N 34°33' E 135°27'0 0.0
2017-Nov-16 01:09N 34°33' E 135°27'0 0.0
2017-Nov-16 00:26N 34°33' E 135°27'0 0.0
2017-Nov-15 23:43N 34°33' E 135°27'0 0.0
2017-Nov-15 23:17N 34°33' E 135°27'0 0.0
2017-Nov-15 23:00N 34°33' E 135°27'0 0.0
2017-Nov-15 22:24N 34°33' E 135°27'0 0.0
2017-Nov-15 22:00N 34°33' E 135°27'0 0.0
2017-Nov-15 21:29N 34°33' E 135°27'0 0.0
2017-Nov-15 20:58N 34°33' E 135°27'0 0.0
2017-Nov-15 20:30N 34°33' E 135°27'0 0.0
2017-Nov-15 20:00N 34°33' E 135°27'0 0.0
2017-Nov-15 19:29N 34°33' E 135°27'0 0.0
2017-Nov-15 19:00N 34°33' E 135°27'0 0.0
2017-Nov-15 18:30N 34°33' E 135°27'0 0.0
2017-Nov-15 18:00N 34°33' E 135°27'0 0.0
2017-Nov-15 17:30N 34°33' E 135°27'0 0.0
2017-Nov-15 17:00N 34°33' E 135°27'0 0.0
2017-Nov-15 16:30N 34°33' E 135°27'0 0.0
2017-Nov-15 16:00N 34°33' E 135°27'0 0.0
2017-Nov-15 15:30N 34°33' E 135°27'0 0.0
2017-Nov-15 15:00N 34°33' E 135°27'0 0.0
2017-Nov-15 14:30N 34°33' E 135°27'0 0.0
2017-Nov-15 14:00N 34°33' E 135°27'0 0.0
2017-Nov-15 13:30N 34°33' E 135°27'0 0.0
2017-Nov-15 13:00N 34°33' E 135°27'0 0.0
2017-Nov-15 12:30N 34°33' E 135°27'0 0.0
2017-Nov-15 12:00N 34°33' E 135°27'0 0.0
2017-Nov-15 11:24N 34°33' E 135°27'0 0.0
2017-Nov-15 10:42N 34°33' E 135°27'0 0.0
2017-Nov-15 10:25N 34°33' E 135°27'0 0.0
2017-Nov-15 09:12N 34°33' E 135°27'0 0.0
2017-Nov-15 08:56N 34°33' E 135°27'0 0.0
2017-Nov-15 08:30N 34°33' E 135°27'0 0.0
2017-Nov-15 07:58N 34°33' E 135°27'0 0.0
2017-Nov-15 07:20N 34°33' E 135°27'0 0.0
2017-Nov-15 06:50N 34°33' E 135°27'0 0.0
2017-Nov-15 06:23N 34°33' E 135°27'0 0.0
2017-Nov-15 04:55N 34°33' E 135°27'511.4
2017-Nov-15 04:30N 34°34' E 135°21'4 7.3
2017-Nov-15 04:00N 34°33' E 135°25'1 0.9
2017-Nov-15 03:10N 34°33' E 135°25'1 6.8
2017-Nov-15 02:59N 34°33' E 135°27'0 0.3
2017-Nov-15 02:27N 34°33' E 135°27'0 0.0
2017-Nov-15 01:55N 34°33' E 135°27'0 0.0
2017-Nov-15 01:28N 34°33' E 135°27'0 0.0
2017-Nov-15 01:00N 34°33' E 135°27'0 0.0
2017-Nov-15 00:29N 34°33' E 135°27'0 0.0
2017-Nov-15 00:00N 34°33' E 135°27'0 0.0
2017-Nov-14 23:30N 34°33' E 135°27'0 0.0
2017-Nov-14 23:00N 34°33' E 135°27'0 0.0
2017-Nov-14 22:30N 34°33' E 135°27'0 0.0
2017-Nov-14 22:00N 34°33' E 135°27'0 0.0
2017-Nov-14 21:29N 34°33' E 135°27'0 0.0
2017-Nov-14 21:00N 34°33' E 135°27'0 0.0
2017-Nov-14 20:30N 34°33' E 135°27'0 0.0
2017-Nov-14 20:00N 34°33' E 135°27'0 0.0
2017-Nov-14 19:30N 34°33' E 135°27'0 0.0
2017-Nov-14 19:00N 34°33' E 135°27'0 0.0
2017-Nov-14 18:30N 34°33' E 135°27'0 0.0
2017-Nov-14 18:00N 34°33' E 135°27'0 0.0
2017-Nov-14 17:30N 34°33' E 135°27'0 0.0
2017-Nov-14 17:00N 34°33' E 135°27'0 0.0
2017-Nov-14 16:30N 34°33' E 135°27'0 0.0
2017-Nov-14 16:00N 34°33' E 135°27'0 0.0
2017-Nov-14 15:30N 34°33' E 135°27'0 0.0
2017-Nov-14 15:00N 34°33' E 135°27'0 0.0
2017-Nov-14 14:30N 34°33' E 135°27'0 0.0
2017-Nov-14 14:00N 34°33' E 135°27'0 0.0
2017-Nov-14 13:30N 34°33' E 135°27'0 0.0
2017-Nov-14 13:00N 34°33' E 135°27'0 0.0
2017-Nov-14 12:30N 34°33' E 135°27'0 0.0
2017-Nov-14 12:00N 34°33' E 135°27'0 0.0
2017-Nov-14 11:30N 34°33' E 135°27'0 0.0
2017-Nov-14 11:00N 34°33' E 135°27'0 0.0
2017-Nov-14 10:30N 34°33' E 135°27'0 0.0
2017-Nov-14 10:00N 34°33' E 135°27'0 0.0
2017-Nov-14 09:30N 34°33' E 135°27'0 0.0
2017-Nov-14 09:00N 34°33' E 135°27'0 0.0
2017-Nov-14 08:30N 34°33' E 135°27'2 4.3
2017-Nov-14 08:00N 34°33' E 135°24'2 3.4
2017-Nov-14 07:27N 34°31' E 135°23'1 1.6
2017-Nov-14 07:00N 34°32' E 135°23'3 5.6
2017-Nov-14 06:30N 34°35' E 135°23'1 2.2
2017-Nov-14 06:00N 34°36' E 135°24'0 0.0
2017-Nov-14 05:30N 34°36' E 135°24'0 0.0
2017-Nov-14 05:00N 34°36' E 135°24'0 0.0
2017-Nov-14 04:30N 34°36' E 135°24'3 6.1
2017-Nov-14 04:00N 34°39' E 135°24'0 0.4
2017-Nov-14 03:30N 34°39' E 135°24'  
Track history (hours):
 
Tides and Currents Weather Stations Pressure Air Temp Water Temp Dewpoint Dewpoint Depression Visibility Wind Speed Wind Dir Waves Ship Positions

Nikko Maru

Last reported at 2017-Nov-24 03:30 UTC. Time now 2017-Nov-24 03:35 UTC.
Position N 34°39' E 135°25'.

Length 43 m; draft 4 m.

Type: Tug. MMSI: 431002379.

Date/timePositionNaut miles runAvg speedWind from/ knotsBaromVisibWave heightAir tempDewpointWater temp
2017-Nov-24 03:30N 34°39' E 135°25'2 4.3
2017-Nov-24 03:00N 34°38' E 135°23'1 1.1
2017-Nov-24 02:30N 34°37' E 135°23'1 2.5
2017-Nov-24 01:58N 34°36' E 135°24'0 0.2
2017-Nov-24 01:29N 34°36' E 135°24'2 5.0
2017-Nov-24 00:59N 34°34' E 135°23'2 5.0
2017-Nov-24 00:29N 34°33' E 135°26'0 0.1
2017-Nov-24 00:00N 34°33' E 135°26'0 0.1
2017-Nov-23 23:30N 34°33' E 135°26'3 5.8
2017-Nov-23 23:00N 34°31' E 135°24'1 1.0
2017-Nov-23 22:26N 34°31' E 135°24'0 0.0
2017-Nov-23 21:58N 34°31' E 135°24'0 0.0
2017-Nov-23 21:29N 34°31' E 135°24'1 2.0
2017-Nov-23 20:55N 34°32' E 135°24'3 6.1
2017-Nov-23 20:30N 34°33' E 135°27'0 0.0
2017-Nov-23 20:00N 34°33' E 135°27'0 0.0
2017-Nov-23 19:29N 34°33' E 135°27'0 0.0
2017-Nov-23 19:00N 34°33' E 135°27'0 0.0
2017-Nov-23 18:30N 34°33' E 135°27'0 0.0
2017-Nov-23 18:00N 34°33' E 135°27'0 0.0
2017-Nov-23 17:30N 34°33' E 135°27'0 0.0
2017-Nov-23 17:00N 34°33' E 135°27'0 0.0
2017-Nov-23 16:30N 34°33' E 135°27'0 0.0
2017-Nov-23 16:00N 34°33' E 135°27'0 0.0
2017-Nov-23 15:30N 34°33' E 135°27'0 0.0
2017-Nov-23 15:00N 34°33' E 135°27'0 0.0
2017-Nov-23 14:30N 34°33' E 135°27'0 0.0
2017-Nov-23 14:00N 34°33' E 135°27'0 0.0
2017-Nov-23 13:28N 34°33' E 135°27'0 0.0
2017-Nov-23 12:55N 34°33' E 135°27'0 0.0
2017-Nov-23 12:30N 34°33' E 135°27'0 0.0
2017-Nov-23 11:57N 34°33' E 135°27'0 0.0
2017-Nov-23 11:24N 34°33' E 135°27'0 0.0
2017-Nov-23 10:58N 34°33' E 135°27'0 0.0
2017-Nov-23 10:30N 34°33' E 135°27'0 0.0
2017-Nov-23 10:00N 34°33' E 135°27'0 0.0
2017-Nov-23 09:30N 34°33' E 135°27'0 0.0
2017-Nov-23 09:00N 34°33' E 135°27'0 0.0
2017-Nov-23 07:24N 34°33' E 135°27'0 0.0
2017-Nov-23 05:17N 34°33' E 135°27'0 0.0
2017-Nov-23 04:06N 34°33' E 135°27'0 0.0
2017-Nov-23 01:15N 34°33' E 135°27'0 0.0
2017-Nov-23 00:54N 34°33' E 135°27'0 0.0
2017-Nov-23 00:26N 34°33' E 135°27'0 0.0
2017-Nov-23 00:00N 34°33' E 135°27'1 0.8
2017-Nov-22 23:15N 34°34' E 135°26'0 0.3
2017-Nov-22 23:00N 34°33' E 135°26'1 1.8
2017-Nov-22 22:29N 34°33' E 135°25'4 7.0
2017-Nov-22 21:58N 34°34' E 135°20'1 1.3
2017-Nov-22 21:30N 34°34' E 135°21'5 9.0
2017-Nov-22 21:00N 34°33' E 135°27'0 0.0
2017-Nov-22 20:30N 34°33' E 135°27'0 0.0
2017-Nov-22 20:00N 34°33' E 135°27'0 0.0
2017-Nov-22 19:30N 34°33' E 135°27'  
2017-Nov-20 00:29N 34°33' E 135°27'0 0.0
2017-Nov-19 23:56N 34°33' E 135°27'0 0.0
2017-Nov-19 23:23N 34°33' E 135°27'0 0.0
2017-Nov-19 22:57N 34°33' E 135°27'0 0.0
2017-Nov-19 22:31N 34°33' E 135°27'0 0.0
2017-Nov-19 22:01N 34°33' E 135°27'0 0.0
2017-Nov-19 21:25N 34°33' E 135°27'0 0.0
2017-Nov-19 21:00N 34°33' E 135°27'0 0.0
2017-Nov-19 20:30N 34°33' E 135°27'0 0.0
2017-Nov-19 20:00N 34°33' E 135°27'0 0.0
2017-Nov-19 19:30N 34°33' E 135°27'0 0.0
2017-Nov-19 19:01N 34°33' E 135°27'0 0.0
2017-Nov-19 18:31N 34°33' E 135°27'0 0.0
2017-Nov-19 18:01N 34°33' E 135°27'0 0.0
2017-Nov-19 17:31N 34°33' E 135°27'0 0.0
2017-Nov-19 17:01N 34°33' E 135°27'0 0.0
2017-Nov-19 16:30N 34°33' E 135°27'0 0.0
2017-Nov-19 16:01N 34°33' E 135°27'0 0.0
2017-Nov-19 15:31N 34°33' E 135°27'0 0.0
2017-Nov-19 15:00N 34°33' E 135°27'0 0.0
2017-Nov-19 14:31N 34°33' E 135°27'0 0.0
2017-Nov-19 14:01N 34°33' E 135°27'0 0.0
2017-Nov-19 13:31N 34°33' E 135°27'0 0.0
2017-Nov-19 13:01N 34°33' E 135°27'0 0.0
2017-Nov-19 12:30N 34°33' E 135°27'0 0.0
2017-Nov-19 12:01N 34°33' E 135°27'0 0.0
2017-Nov-19 11:29N 34°33' E 135°27'0 0.0
2017-Nov-19 11:01N 34°33' E 135°27'0 0.0
2017-Nov-19 10:27N 34°33' E 135°27'0 0.0
2017-Nov-19 07:02N 34°33' E 135°27'0 0.0
2017-Nov-19 06:46N 34°33' E 135°27'0 0.0
2017-Nov-19 06:22N 34°33' E 135°27'0 0.0
2017-Nov-19 05:59N 34°33' E 135°27'0 0.0
2017-Nov-19 02:35N 34°33' E 135°27'1 6.4
2017-Nov-19 02:26N 34°33' E 135°26'3 7.5
2017-Nov-19 02:01N 34°31' E 135°23'0 0.2
2017-Nov-19 01:26N 34°31' E 135°24'1 3.4
2017-Nov-19 01:01N 34°32' E 135°23'0 0.6
2017-Nov-19 00:30N 34°32' E 135°23'1 2.7
2017-Nov-18 23:58N 34°31' E 135°24'0 0.0
2017-Nov-18 23:13N 34°31' E 135°24'0 1.3
2017-Nov-18 23:00N 34°32' E 135°24'0 0.7
2017-Nov-18 22:30N 34°32' E 135°24'1 2.6
2017-Nov-18 22:01N 34°33' E 135°23'0 0.1
2017-Nov-18 21:31N 34°33' E 135°23'3 5.2
2017-Nov-18 21:01N 34°33' E 135°27'0 0.0
2017-Nov-18 20:31N 34°33' E 135°27'0 0.0
2017-Nov-18 20:00N 34°33' E 135°27'0 0.0
2017-Nov-18 19:29N 34°33' E 135°27'0 0.0
2017-Nov-18 19:01N 34°33' E 135°27'0 0.0
2017-Nov-18 18:30N 34°33' E 135°27'0 0.0
2017-Nov-18 18:01N 34°33' E 135°27'0 0.0
2017-Nov-18 17:30N 34°33' E 135°27'0 0.0
2017-Nov-18 17:00N 34°33' E 135°27'0 0.0
2017-Nov-18 16:31N 34°33' E 135°27'0 0.0
2017-Nov-18 16:01N 34°33' E 135°27'0 0.0
2017-Nov-18 15:31N 34°33' E 135°27'0 0.0
2017-Nov-18 15:01N 34°33' E 135°27'0 0.0
2017-Nov-18 14:31N 34°33' E 135°27'0 0.0
2017-Nov-18 14:00N 34°33' E 135°27'0 0.0
2017-Nov-18 13:29N 34°33' E 135°27'0 0.0
2017-Nov-18 13:01N 34°33' E 135°27'0 0.0
2017-Nov-18 12:30N 34°33' E 135°27'0 0.0
2017-Nov-18 12:00N 34°33' E 135°27'0 0.0
2017-Nov-18 11:31N 34°33' E 135°27'0 0.0
2017-Nov-18 11:00N 34°33' E 135°27'0 0.0
2017-Nov-18 10:31N 34°33' E 135°27'0 0.0
2017-Nov-18 10:00N 34°33' E 135°27'0 0.0
2017-Nov-18 09:29N 34°33' E 135°27'0 0.0
2017-Nov-18 08:58N 34°33' E 135°27'0 0.0
2017-Nov-18 08:24N 34°33' E 135°27'0 0.0
2017-Nov-18 08:00N 34°33' E 135°27'0 0.0
2017-Nov-18 07:31N 34°33' E 135°27'0 0.0
2017-Nov-18 07:01N 34°33' E 135°27'2 4.9
2017-Nov-18 06:31N 34°34' E 135°24'5 9.8
2017-Nov-18 06:00N 34°39' E 135°24'1 2.0
2017-Nov-18 05:31N 34°38' E 135°23'1 2.3
2017-Nov-18 05:00N 34°37' E 135°23'4 8.0
2017-Nov-18 04:29N 34°33' E 135°25'1 2.3
2017-Nov-18 04:00N 34°33' E 135°27'0 0.0
2017-Nov-18 03:30N 34°33' E 135°27'0 0.0
2017-Nov-18 03:00N 34°33' E 135°27'0 0.0
2017-Nov-18 02:30N 34°33' E 135°27'0 0.0
2017-Nov-18 02:00N 34°33' E 135°27'0 0.0
2017-Nov-18 01:30N 34°33' E 135°27'0 0.0
2017-Nov-18 01:00N 34°33' E 135°27'0 0.0
2017-Nov-18 00:30N 34°33' E 135°27'0 0.0
2017-Nov-18 00:00N 34°33' E 135°27'0 0.0
2017-Nov-17 23:30N 34°33' E 135°27'0 0.0
2017-Nov-17 23:00N 34°33' E 135°27'0 0.0
2017-Nov-17 22:30N 34°33' E 135°27'0 0.0
2017-Nov-17 22:00N 34°33' E 135°27'0 0.0
2017-Nov-17 21:30N 34°33' E 135°27'0 0.0
2017-Nov-17 21:00N 34°33' E 135°27'0 0.0
2017-Nov-17 20:30N 34°33' E 135°27'0 0.0
2017-Nov-17 20:00N 34°33' E 135°27'0 0.0
2017-Nov-17 19:30N 34°33' E 135°27'0 0.0
2017-Nov-17 19:00N 34°33' E 135°27'0 0.0
2017-Nov-17 18:30N 34°33' E 135°27'0 0.0
2017-Nov-17 18:00N 34°33' E 135°27'0 0.0
2017-Nov-17 17:30N 34°33' E 135°27'0 0.0
2017-Nov-17 17:00N 34°33' E 135°27'0 0.0
2017-Nov-17 16:30N 34°33' E 135°27'0 0.0
2017-Nov-17 16:00N 34°33' E 135°27'0 0.0
2017-Nov-17 15:30N 34°33' E 135°27'0 0.0
2017-Nov-17 15:00N 34°33' E 135°27'0 0.0
2017-Nov-17 14:30N 34°33' E 135°27'0 0.0
2017-Nov-17 14:00N 34°33' E 135°27'0 0.0
2017-Nov-17 13:30N 34°33' E 135°27'0 0.0
2017-Nov-17 13:00N 34°33' E 135°27'0 0.0
2017-Nov-17 12:30N 34°33' E 135°27'0 0.0
2017-Nov-17 12:00N 34°33' E 135°27'0 0.0
2017-Nov-17 11:30N 34°33' E 135°27'0 0.0
2017-Nov-17 11:00N 34°33' E 135°27'0 0.0
2017-Nov-17 10:30N 34°33' E 135°27'0 0.0
2017-Nov-17 10:00N 34°33' E 135°27'0 0.0
2017-Nov-17 09:30N 34°33' E 135°27'0 0.0
2017-Nov-17 09:00N 34°33' E 135°27'0 0.0
2017-Nov-17 08:19N 34°33' E 135°27'0 0.0
2017-Nov-17 08:00N 34°33' E 135°27'0 0.0
2017-Nov-17 07:26N 34°33' E 135°27'0 0.0
2017-Nov-17 06:58N 34°33' E 135°27'0 0.0
2017-Nov-17 06:12N 34°33' E 135°27'0 0.0
2017-Nov-17 05:59N 34°33' E 135°27'0 0.0
2017-Nov-17 04:59N 34°33' E 135°27'0 0.0
2017-Nov-17 04:28N 34°33' E 135°27'0 0.0
2017-Nov-17 03:59N 34°33' E 135°27'2 1.3
2017-Nov-17 02:31N 34°34' E 135°24'0 0.0
2017-Nov-17 02:29N 34°34' E 135°24'1 1.2
2017-Nov-17 02:00N 34°33' E 135°24'3 5.6
2017-Nov-17 01:30N 34°33' E 135°20'1 2.4
2017-Nov-17 00:58N 34°33' E 135°22'4 8.5
2017-Nov-17 00:30N 34°33' E 135°27'0 0.0
2017-Nov-17 00:00N 34°33' E 135°27'0 0.0
2017-Nov-16 23:30N 34°33' E 135°27'0 0.0
2017-Nov-16 23:00N 34°33' E 135°27'0 0.0
2017-Nov-16 22:30N 34°33' E 135°27'0 0.0
2017-Nov-16 22:00N 34°33' E 135°27'0 0.0
2017-Nov-16 21:30N 34°33' E 135°27'0 0.0
2017-Nov-16 21:00N 34°33' E 135°27'0 0.0
2017-Nov-16 20:30N 34°33' E 135°27'0 0.0
2017-Nov-16 20:00N 34°33' E 135°27'0 0.0
2017-Nov-16 19:30N 34°33' E 135°27'0 0.0
2017-Nov-16 19:00N 34°33' E 135°27'0 0.0
2017-Nov-16 18:30N 34°33' E 135°27'0 0.0
2017-Nov-16 18:00N 34°33' E 135°27'0 0.0
2017-Nov-16 17:30N 34°33' E 135°27'0 0.0
2017-Nov-16 17:00N 34°33' E 135°27'0 0.0
2017-Nov-16 16:30N 34°33' E 135°27'0 0.0
2017-Nov-16 15:59N 34°33' E 135°27'0 0.0
2017-Nov-16 15:30N 34°33' E 135°27'0 0.0
2017-Nov-16 15:00N 34°33' E 135°27'0 0.0
2017-Nov-16 14:30N 34°33' E 135°27'0 0.0
2017-Nov-16 14:00N 34°33' E 135°27'0 0.0
2017-Nov-16 13:30N 34°33' E 135°27'0 0.0
2017-Nov-16 12:59N 34°33' E 135°27'0 0.0
2017-Nov-16 12:29N 34°33' E 135°27'0 0.0
2017-Nov-16 12:00N 34°33' E 135°27'0 0.0
2017-Nov-16 11:30N 34°33' E 135°27'0 0.0
2017-Nov-16 10:59N 34°33' E 135°27'0 0.0
2017-Nov-16 10:30N 34°33' E 135°27'0 0.0
2017-Nov-16 10:00N 34°33' E 135°27'0 0.0
2017-Nov-16 09:30N 34°33' E 135°27'0 0.0
2017-Nov-16 09:00N 34°33' E 135°27'0 0.0
2017-Nov-16 08:26N 34°33' E 135°27'0 0.0
2017-Nov-16 07:58N 34°33' E 135°27'0 0.0
2017-Nov-16 05:18N 34°33' E 135°27'0 0.0
2017-Nov-16 04:47N 34°33' E 135°27'0 0.0
2017-Nov-16 04:10N 34°33' E 135°27'0 0.0
2017-Nov-16 03:47N 34°33' E 135°27'0 0.0
2017-Nov-16 01:55N 34°33' E 135°27'0 0.0
2017-Nov-16 01:09N 34°33' E 135°27'0 0.0
2017-Nov-16 00:26N 34°33' E 135°27'0 0.0
2017-Nov-15 23:43N 34°33' E 135°27'0 0.0
2017-Nov-15 23:17N 34°33' E 135°27'0 0.0
2017-Nov-15 23:00N 34°33' E 135°27'0 0.0
2017-Nov-15 22:24N 34°33' E 135°27'0 0.0
2017-Nov-15 22:00N 34°33' E 135°27'0 0.0
2017-Nov-15 21:29N 34°33' E 135°27'0 0.0
2017-Nov-15 20:58N 34°33' E 135°27'0 0.0
2017-Nov-15 20:30N 34°33' E 135°27'0 0.0
2017-Nov-15 20:00N 34°33' E 135°27'0 0.0
2017-Nov-15 19:29N 34°33' E 135°27'0 0.0
2017-Nov-15 19:00N 34°33' E 135°27'0 0.0
2017-Nov-15 18:30N 34°33' E 135°27'0 0.0
2017-Nov-15 18:00N 34°33' E 135°27'0 0.0
2017-Nov-15 17:30N 34°33' E 135°27'0 0.0
2017-Nov-15 17:00N 34°33' E 135°27'0 0.0
2017-Nov-15 16:30N 34°33' E 135°27'0 0.0
2017-Nov-15 16:00N 34°33' E 135°27'0 0.0
2017-Nov-15 15:30N 34°33' E 135°27'0 0.0
2017-Nov-15 15:00N 34°33' E 135°27'0 0.0
2017-Nov-15 14:30N 34°33' E 135°27'0 0.0
2017-Nov-15 14:00N 34°33' E 135°27'0 0.0
2017-Nov-15 13:30N 34°33' E 135°27'0 0.0
2017-Nov-15 13:00N 34°33' E 135°27'0 0.0
2017-Nov-15 12:30N 34°33' E 135°27'0 0.0
2017-Nov-15 12:00N 34°33' E 135°27'0 0.0
2017-Nov-15 11:24N 34°33' E 135°27'0 0.0
2017-Nov-15 10:42N 34°33' E 135°27'0 0.0
2017-Nov-15 10:25N 34°33' E 135°27'0 0.0
2017-Nov-15 09:12N 34°33' E 135°27'0 0.0
2017-Nov-15 08:56N 34°33' E 135°27'0 0.0
2017-Nov-15 08:30N 34°33' E 135°27'0 0.0
2017-Nov-15 07:58N 34°33' E 135°27'0 0.0
2017-Nov-15 07:20N 34°33' E 135°27'0 0.0
2017-Nov-15 06:50N 34°33' E 135°27'0 0.0
2017-Nov-15 06:23N 34°33' E 135°27'0 0.0
2017-Nov-15 04:55N 34°33' E 135°27'511.4
2017-Nov-15 04:30N 34°34' E 135°21'4 7.3
2017-Nov-15 04:00N 34°33' E 135°25'1 0.9
2017-Nov-15 03:10N 34°33' E 135°25'1 6.8
2017-Nov-15 02:59N 34°33' E 135°27'0 0.3
2017-Nov-15 02:27N 34°33' E 135°27'0 0.0
2017-Nov-15 01:55N 34°33' E 135°27'0 0.0
2017-Nov-15 01:28N 34°33' E 135°27'0 0.0
2017-Nov-15 01:00N 34°33' E 135°27'0 0.0
2017-Nov-15 00:29N 34°33' E 135°27'0 0.0
2017-Nov-15 00:00N 34°33' E 135°27'0 0.0
2017-Nov-14 23:30N 34°33' E 135°27'0 0.0
2017-Nov-14 23:00N 34°33' E 135°27'0 0.0
2017-Nov-14 22:30N 34°33' E 135°27'0 0.0
2017-Nov-14 22:00N 34°33' E 135°27'0 0.0
2017-Nov-14 21:29N 34°33' E 135°27'0 0.0
2017-Nov-14 21:00N 34°33' E 135°27'0 0.0
2017-Nov-14 20:30N 34°33' E 135°27'0 0.0
2017-Nov-14 20:00N 34°33' E 135°27'0 0.0
2017-Nov-14 19:30N 34°33' E 135°27'0 0.0
2017-Nov-14 19:00N 34°33' E 135°27'0 0.0
2017-Nov-14 18:30N 34°33' E 135°27'0 0.0
2017-Nov-14 18:00N 34°33' E 135°27'0 0.0
2017-Nov-14 17:30N 34°33' E 135°27'0 0.0
2017-Nov-14 17:00N 34°33' E 135°27'0 0.0
2017-Nov-14 16:30N 34°33' E 135°27'0 0.0
2017-Nov-14 16:00N 34°33' E 135°27'0 0.0
2017-Nov-14 15:30N 34°33' E 135°27'0 0.0
2017-Nov-14 15:00N 34°33' E 135°27'0 0.0
2017-Nov-14 14:30N 34°33' E 135°27'0 0.0
2017-Nov-14 14:00N 34°33' E 135°27'0 0.0
2017-Nov-14 13:30N 34°33' E 135°27'0 0.0
2017-Nov-14 13:00N 34°33' E 135°27'0 0.0
2017-Nov-14 12:30N 34°33' E 135°27'0 0.0
2017-Nov-14 12:00N 34°33' E 135°27'0 0.0
2017-Nov-14 11:30N 34°33' E 135°27'0 0.0
2017-Nov-14 11:00N 34°33' E 135°27'0 0.0
2017-Nov-14 10:30N 34°33' E 135°27'0 0.0
2017-Nov-14 10:00N 34°33' E 135°27'0 0.0
2017-Nov-14 09:30N 34°33' E 135°27'0 0.0
2017-Nov-14 09:00N 34°33' E 135°27'0 0.0
2017-Nov-14 08:30N 34°33' E 135°27'2 4.3
2017-Nov-14 08:00N 34°33' E 135°24'2 3.4
2017-Nov-14 07:27N 34°31' E 135°23'1 1.6
2017-Nov-14 07:00N 34°32' E 135°23'3 5.6
2017-Nov-14 06:30N 34°35' E 135°23'1 2.2
2017-Nov-14 06:00N 34°36' E 135°24'0 0.0
2017-Nov-14 05:30N 34°36' E 135°24'0 0.0
2017-Nov-14 05:00N 34°36' E 135°24'0 0.0
2017-Nov-14 04:30N 34°36' E 135°24'3 6.1
2017-Nov-14 04:00N 34°39' E 135°24'0 0.4
2017-Nov-14 03:30N 34°39' E 135°24'  

Dump ship's entire track history